sensor_id;sensor_type;location;lat;lon;timestamp;P1;durP1;ratioP1;P2;durP2;ratioP2
49820;SDS011;36893;52.520;13.450;2022-09-20T00:04:24;2.42;;;0.70;;
49820;SDS011;36893;52.520;13.450;2022-09-20T00:14:24;2.20;;;0.60;;
49820;SDS011;36893;52.520;13.450;2022-09-20T00:24:25;0.50;;;0.30;;
49820;SDS011;36893;52.520;13.450;2022-09-20T00:34:25;3.17;;;0.60;;
49820;SDS011;36893;52.520;13.450;2022-09-20T00:54:55;1.27;;;0.45;;
49820;SDS011;36893;52.520;13.450;2022-09-20T01:04:57;1.20;;;0.60;;
49820;SDS011;36893;52.520;13.450;2022-09-20T01:14:58;0.77;;;0.50;;
49820;SDS011;36893;52.520;13.450;2022-09-20T01:35:30;0.70;;;0.50;;
49820;SDS011;36893;52.520;13.450;2022-09-20T02:05:57;0.45;;;0.45;;
49820;SDS011;36893;52.520;13.450;2022-09-20T02:16:41;0.57;;;0.20;;
49820;SDS011;36893;52.520;13.450;2022-09-20T02:27:01;0.50;;;0.20;;
49820;SDS011;36893;52.520;13.450;2022-09-20T02:37:30;2.72;;;0.40;;
49820;SDS011;36893;52.520;13.450;2022-09-20T02:47:48;0.47;;;0.30;;
49820;SDS011;36893;52.520;13.450;2022-09-20T02:57:58;1.75;;;0.50;;
49820;SDS011;36893;52.520;13.450;2022-09-20T03:18:33;1.38;;;0.50;;
49820;SDS011;36893;52.520;13.450;2022-09-20T03:28:56;0.10;;;0.10;;
49820;SDS011;36893;52.520;13.450;2022-09-20T03:39:19;0.35;;;0.20;;
49820;SDS011;36893;52.520;13.450;2022-09-20T04:00:38;0.85;;;0.30;;
49820;SDS011;36893;52.520;13.450;2022-09-20T04:11:14;1.35;;;0.40;;
49820;SDS011;36893;52.520;13.450;2022-09-20T04:21:42;0.43;;;0.30;;
49820;SDS011;36893;52.520;13.450;2022-09-20T04:32:01;2.00;;;0.40;;
49820;SDS011;36893;52.520;13.450;2022-09-20T05:56:07;0.20;;;0.20;;
49820;SDS011;36893;52.520;13.450;2022-09-20T06:06:35;0.45;;;0.32;;
49820;SDS011;36893;52.520;13.450;2022-09-20T06:17:11;0.25;;;0.25;;
49820;SDS011;36893;52.520;13.450;2022-09-20T06:27:32;0.63;;;0.25;;
49820;SDS011;36893;52.520;13.450;2022-09-20T06:37:43;1.00;;;0.40;;
49820;SDS011;36893;52.520;13.450;2022-09-20T06:48:24;1.23;;;0.40;;
49820;SDS011;36893;52.520;13.450;2022-09-20T06:58:24;0.93;;;0.37;;
49820;SDS011;36893;52.520;13.450;2022-09-20T07:08:25;0.97;;;0.40;;
49820;SDS011;36893;52.520;13.450;2022-09-20T07:18:27;0.68;;;0.43;;
49820;SDS011;36893;52.520;13.450;2022-09-20T07:28:28;1.30;;;0.43;;
49820;SDS011;36893;52.520;13.450;2022-09-20T07:38:31;1.50;;;0.30;;
49820;SDS011;36893;52.520;13.450;2022-09-20T07:48:33;1.27;;;0.30;;
49820;SDS011;36893;52.520;13.450;2022-09-20T07:58:35;2.80;;;0.30;;
49820;SDS011;36893;52.520;13.450;2022-09-20T08:08:37;0.57;;;0.38;;
49820;SDS011;36893;52.520;13.450;2022-09-20T08:18:48;1.10;;;0.57;;
49820;SDS011;36893;52.520;13.450;2022-09-20T08:28:52;1.15;;;0.40;;
49820;SDS011;36893;52.520;13.450;2022-09-20T08:38:57;1.80;;;0.40;;
49820;SDS011;36893;52.520;13.450;2022-09-20T08:48:58;0.87;;;0.30;;
49820;SDS011;36893;52.520;13.450;2022-09-20T08:58:59;0.57;;;0.30;;
49820;SDS011;36893;52.520;13.450;2022-09-20T09:08:59;0.97;;;0.47;;
49820;SDS011;36893;52.520;13.450;2022-09-20T09:29:28;0.90;;;0.20;;
49820;SDS011;36893;52.520;13.450;2022-09-20T09:39:30;2.07;;;0.40;;
49820;SDS011;36893;52.520;13.450;2022-09-20T09:49:34;1.80;;;0.28;;
49820;SDS011;36893;52.520;13.450;2022-09-20T09:59:53;0.80;;;0.30;;
49820;SDS011;36893;52.520;13.450;2022-09-20T10:10:30;0.63;;;0.30;;
49820;SDS011;36893;52.520;13.450;2022-09-20T10:31:11;1.92;;;0.38;;
49820;SDS011;36893;52.520;13.450;2022-09-20T10:41:35;1.45;;;0.63;;
49820;SDS011;36893;52.520;13.450;2022-09-20T11:23:43;1.25;;;0.47;;
49820;SDS011;36893;52.520;13.450;2022-09-20T11:34:25;0.38;;;0.38;;
49820;SDS011;36893;52.520;13.450;2022-09-20T11:44:31;1.30;;;0.40;;
49820;SDS011;36893;52.520;13.450;2022-09-20T12:05:37;0.75;;;0.47;;
49820;SDS011;36893;52.520;13.450;2022-09-20T12:15:40;0.53;;;0.30;;
49820;SDS011;36893;52.520;13.450;2022-09-20T12:36:13;0.70;;;0.30;;
49820;SDS011;36893;52.520;13.450;2022-09-20T12:46:18;3.53;;;0.80;;
49820;SDS011;36893;52.520;13.450;2022-09-20T12:56:29;2.53;;;0.90;;
49820;SDS011;36893;52.520;13.450;2022-09-20T13:06:35;2.17;;;1.38;;
49820;SDS011;36893;52.520;13.450;2022-09-20T13:26:40;2.50;;;1.35;;
49820;SDS011;36893;52.520;13.450;2022-09-20T13:36:45;3.15;;;1.33;;
49820;SDS011;36893;52.520;13.450;2022-09-20T13:46:48;0.43;;;0.40;;
49820;SDS011;36893;52.520;13.450;2022-09-20T13:56:48;3.27;;;0.60;;
49820;SDS011;36893;52.520;13.450;2022-09-20T14:06:51;0.57;;;0.30;;
49820;SDS011;36893;52.520;13.450;2022-09-20T14:16:55;0.90;;;0.50;;
49820;SDS011;36893;52.520;13.450;2022-09-20T14:27:17;0.63;;;0.47;;
49820;SDS011;36893;52.520;13.450;2022-09-20T14:37:24;2.13;;;0.55;;
49820;SDS011;36893;52.520;13.450;2022-09-20T14:47:54;0.50;;;0.35;;
49820;SDS011;36893;52.520;13.450;2022-09-20T14:58:26;0.25;;;0.25;;
49820;SDS011;36893;52.520;13.450;2022-09-20T15:08:26;0.90;;;0.57;;
49820;SDS011;36893;52.520;13.450;2022-09-20T15:18:29;0.63;;;0.50;;
49820;SDS011;36893;52.520;13.450;2022-09-20T15:28:36;0.80;;;0.40;;
49820;SDS011;36893;52.520;13.450;2022-09-20T15:38:36;0.73;;;0.40;;
49820;SDS011;36893;52.520;13.450;2022-09-20T15:48:37;1.60;;;0.60;;
49820;SDS011;36893;52.520;13.450;2022-09-20T15:58:42;1.55;;;0.40;;
49820;SDS011;36893;52.520;13.450;2022-09-20T16:08:46;0.75;;;0.63;;
49820;SDS011;36893;52.520;13.450;2022-09-20T16:18:47;0.50;;;0.32;;
49820;SDS011;36893;52.520;13.450;2022-09-20T16:29:06;1.17;;;0.55;;
49820;SDS011;36893;52.520;13.450;2022-09-20T16:39:07;0.40;;;0.40;;
49820;SDS011;36893;52.520;13.450;2022-09-20T16:49:08;0.65;;;0.30;;
49820;SDS011;36893;52.520;13.450;2022-09-20T16:59:11;0.27;;;0.27;;
49820;SDS011;36893;52.520;13.450;2022-09-20T17:09:15;2.25;;;0.55;;
49820;SDS011;36893;52.520;13.450;2022-09-20T17:19:17;2.08;;;0.70;;
49820;SDS011;36893;52.520;13.450;2022-09-20T17:29:19;0.33;;;0.30;;
49820;SDS011;36893;52.520;13.450;2022-09-20T17:39:20;0.20;;;0.20;;
49820;SDS011;36893;52.520;13.450;2022-09-20T17:49:21;1.57;;;0.70;;
49820;SDS011;36893;52.520;13.450;2022-09-20T17:59:22;0.60;;;0.40;;
49820;SDS011;36893;52.520;13.450;2022-09-20T18:09:24;1.35;;;0.70;;
49820;SDS011;36893;52.520;13.450;2022-09-20T18:19:26;2.28;;;0.75;;
49820;SDS011;36893;52.520;13.450;2022-09-20T18:29:33;1.13;;;0.70;;
49820;SDS011;36893;52.520;13.450;2022-09-20T18:39:35;3.55;;;0.70;;
49820;SDS011;36893;52.520;13.450;2022-09-20T18:49:36;0.90;;;0.60;;
49820;SDS011;36893;52.520;13.450;2022-09-20T18:59:37;2.03;;;0.70;;
49820;SDS011;36893;52.520;13.450;2022-09-20T19:19:48;2.33;;;0.93;;
49820;SDS011;36893;52.520;13.450;2022-09-20T19:30:03;1.10;;;0.50;;
49820;SDS011;36893;52.520;13.450;2022-09-20T19:50:47;2.88;;;0.98;;
49820;SDS011;36893;52.520;13.450;2022-09-20T20:00:51;2.33;;;0.80;;
49820;SDS011;36893;52.520;13.450;2022-09-20T20:11:14;2.08;;;1.25;;
49820;SDS011;36893;52.520;13.450;2022-09-20T20:21:42;1.50;;;0.93;;
49820;SDS011;36893;52.520;13.450;2022-09-20T20:31:52;2.05;;;1.00;;
49820;SDS011;36893;52.520;13.450;2022-09-20T20:41:52;1.37;;;0.80;;
49820;SDS011;36893;52.520;13.450;2022-09-20T20:51:53;1.57;;;0.73;;
49820;SDS011;36893;52.520;13.450;2022-09-20T21:01:55;4.35;;;1.13;;
49820;SDS011;36893;52.520;13.450;2022-09-20T21:11:55;1.80;;;0.80;;
49820;SDS011;36893;52.520;13.450;2022-09-20T21:21:56;3.67;;;0.90;;
49820;SDS011;36893;52.520;13.450;2022-09-20T21:31:57;1.52;;;0.95;;
49820;SDS011;36893;52.520;13.450;2022-09-20T21:41:58;2.23;;;1.03;;
49820;SDS011;36893;52.520;13.450;2022-09-20T21:51:59;2.50;;;0.93;;
49820;SDS011;36893;52.520;13.450;2022-09-20T22:01:59;4.10;;;0.87;;
49820;SDS011;36893;52.520;13.450;2022-09-20T22:12:00;5.18;;;1.20;;
49820;SDS011;36893;52.520;13.450;2022-09-20T22:22:01;3.92;;;1.08;;
49820;SDS011;36893;52.520;13.450;2022-09-20T22:32:02;1.63;;;0.70;;
49820;SDS011;36893;52.520;13.450;2022-09-20T22:42:02;1.60;;;1.03;;
49820;SDS011;36893;52.520;13.450;2022-09-20T22:52:03;1.17;;;0.75;;
49820;SDS011;36893;52.520;13.450;2022-09-20T23:02:04;5.15;;;1.30;;
49820;SDS011;36893;52.520;13.450;2022-09-20T23:12:05;2.53;;;1.00;;
49820;SDS011;36893;52.520;13.450;2022-09-20T23:22:05;2.87;;;0.83;;
49820;SDS011;36893;52.520;13.450;2022-09-20T23:32:06;3.07;;;1.17;;
49820;SDS011;36893;52.520;13.450;2022-09-20T23:42:06;1.60;;;0.83;;
49820;SDS011;36893;52.520;13.450;2022-09-20T23:52:07;2.73;;;1.03;;
